sensor_id;sensor_type;location;lat;lon;timestamp;pressure;altitude;pressure_sealevel;temperature;humidity
24154;BME280;12312;53.362;-1.518;2023-04-21T00:01:50;57923.84;;;-139.99;100.00
24154;BME280;12312;53.362;-1.518;2023-04-21T00:04:35;57923.84;;;-139.99;100.00
24154;BME280;12312;53.362;-1.518;2023-04-21T00:07:19;57923.84;;;-139.99;100.00
24154;BME280;12312;53.362;-1.518;2023-04-21T00:10:06;57923.84;;;-139.99;100.00
24154;BME280;12312;53.362;-1.518;2023-04-21T00:12:51;57923.84;;;-139.99;100.00
24154;BME280;12312;53.362;-1.518;2023-04-21T00:15:35;57923.84;;;-139.99;100.00
24154;BME280;12312;53.362;-1.518;2023-04-21T00:18:19;57923.84;;;-139.99;100.00
24154;BME280;12312;53.362;-1.518;2023-04-21T00:21:03;57923.84;;;-139.99;100.00
24154;BME280;12312;53.362;-1.518;2023-04-21T00:23:47;57923.84;;;-139.99;100.00
24154;BME280;12312;53.362;-1.518;2023-04-21T00:26:32;57923.84;;;-139.99;100.00
24154;BME280;12312;53.362;-1.518;2023-04-21T00:29:16;57923.84;;;-139.99;100.00
24154;BME280;12312;53.362;-1.518;2023-04-21T00:32:00;57923.84;;;-139.99;100.00
24154;BME280;12312;53.362;-1.518;2023-04-21T00:34:46;57923.84;;;-139.99;100.00
24154;BME280;12312;53.362;-1.518;2023-04-21T00:37:30;57923.84;;;-139.99;100.00
24154;BME280;12312;53.362;-1.518;2023-04-21T00:40:14;57923.84;;;-139.99;100.00
24154;BME280;12312;53.362;-1.518;2023-04-21T00:42:59;57923.84;;;-139.99;100.00
24154;BME280;12312;53.362;-1.518;2023-04-21T00:45:47;57923.84;;;-139.99;100.00
24154;BME280;12312;53.362;-1.518;2023-04-21T00:48:31;57923.84;;;-139.99;100.00
24154;BME280;12312;53.362;-1.518;2023-04-21T00:51:15;57923.84;;;-139.99;100.00
24154;BME280;12312;53.362;-1.518;2023-04-21T00:54:00;57923.84;;;-139.99;100.00
24154;BME280;12312;53.362;-1.518;2023-04-21T00:56:45;57923.84;;;-139.99;100.00
24154;BME280;12312;53.362;-1.518;2023-04-21T00:59:29;57923.84;;;-139.99;100.00
24154;BME280;12312;53.362;-1.518;2023-04-21T01:02:15;57923.84;;;-139.99;100.00
24154;BME280;12312;53.362;-1.518;2023-04-21T01:04:59;57923.84;;;-139.99;100.00
24154;BME280;12312;53.362;-1.518;2023-04-21T01:07:43;57923.84;;;-139.99;100.00
24154;BME280;12312;53.362;-1.518;2023-04-21T01:10:27;57923.84;;;-139.99;100.00
24154;BME280;12312;53.362;-1.518;2023-04-21T01:13:12;57923.84;;;-139.99;100.00
24154;BME280;12312;53.362;-1.518;2023-04-21T01:15:56;57923.84;;;-139.99;100.00
24154;BME280;12312;53.362;-1.518;2023-04-21T01:18:40;57923.84;;;-139.99;100.00
24154;BME280;12312;53.362;-1.518;2023-04-21T01:21:25;57923.84;;;-139.99;100.00
24154;BME280;12312;53.362;-1.518;2023-04-21T01:24:10;57923.84;;;-139.99;100.00
24154;BME280;12312;53.362;-1.518;2023-04-21T01:26:54;57923.84;;;-139.99;100.00
24154;BME280;12312;53.362;-1.518;2023-04-21T01:29:40;57923.84;;;-139.99;100.00
24154;BME280;12312;53.362;-1.518;2023-04-21T01:32:26;57923.84;;;-139.99;100.00
24154;BME280;12312;53.362;-1.518;2023-04-21T01:35:11;57923.84;;;-139.99;100.00
24154;BME280;12312;53.362;-1.518;2023-04-21T01:37:55;57923.84;;;-139.99;100.00
24154;BME280;12312;53.362;-1.518;2023-04-21T01:40:39;57923.84;;;-139.99;100.00
24154;BME280;12312;53.362;-1.518;2023-04-21T01:43:25;57923.84;;;-139.99;100.00
24154;BME280;12312;53.362;-1.518;2023-04-21T01:46:08;57923.84;;;-139.99;100.00
24154;BME280;12312;53.362;-1.518;2023-04-21T01:48:53;57923.84;;;-139.99;100.00
24154;BME280;12312;53.362;-1.518;2023-04-21T01:51:37;57923.84;;;-139.99;100.00
24154;BME280;12312;53.362;-1.518;2023-04-21T01:54:21;57923.84;;;-139.99;100.00
24154;BME280;12312;53.362;-1.518;2023-04-21T01:57:05;57923.84;;;-139.99;100.00
24154;BME280;12312;53.362;-1.518;2023-04-21T01:59:49;57923.84;;;-139.99;100.00
24154;BME280;12312;53.362;-1.518;2023-04-21T02:02:33;57923.84;;;-139.99;100.00
24154;BME280;12312;53.362;-1.518;2023-04-21T02:05:18;57923.84;;;-139.99;100.00
24154;BME280;12312;53.362;-1.518;2023-04-21T02:08:02;57923.84;;;-139.99;100.00
24154;BME280;12312;53.362;-1.518;2023-04-21T02:10:46;57923.84;;;-139.99;100.00
24154;BME280;12312;53.362;-1.518;2023-04-21T02:13:30;57923.84;;;-139.99;100.00
24154;BME280;12312;53.362;-1.518;2023-04-21T02:16:14;57923.84;;;-139.99;100.00
24154;BME280;12312;53.362;-1.518;2023-04-21T02:18:58;57923.84;;;-139.99;100.00
24154;BME280;12312;53.362;-1.518;2023-04-21T02:21:46;57923.84;;;-139.99;100.00
24154;BME280;12312;53.362;-1.518;2023-04-21T02:24:30;57923.84;;;-139.99;100.00
24154;BME280;12312;53.362;-1.518;2023-04-21T02:27:14;57923.84;;;-139.99;100.00
24154;BME280;12312;53.362;-1.518;2023-04-21T02:29:58;57923.84;;;-139.99;100.00
24154;BME280;12312;53.362;-1.518;2023-04-21T02:32:42;57923.84;;;-139.99;100.00
24154;BME280;12312;53.362;-1.518;2023-04-21T02:35:26;57923.84;;;-139.99;100.00
24154;BME280;12312;53.362;-1.518;2023-04-21T02:38:10;57923.84;;;-139.99;100.00
24154;BME280;12312;53.362;-1.518;2023-04-21T02:40:55;57923.84;;;-139.99;100.00
24154;BME280;12312;53.362;-1.518;2023-04-21T02:43:39;57923.84;;;-139.99;100.00
24154;BME280;12312;53.362;-1.518;2023-04-21T02:46:23;57923.84;;;-139.99;100.00
24154;BME280;12312;53.362;-1.518;2023-04-21T02:49:08;57923.84;;;-139.99;100.00
24154;BME280;12312;53.362;-1.518;2023-04-21T02:51:52;57923.84;;;-139.99;100.00
24154;BME280;12312;53.362;-1.518;2023-04-21T02:54:37;57923.84;;;-139.99;100.00
24154;BME280;12312;53.362;-1.518;2023-04-21T02:57:22;57923.84;;;-139.99;100.00
24154;BME280;12312;53.362;-1.518;2023-04-21T03:00:06;57923.84;;;-139.99;100.00
24154;BME280;12312;53.362;-1.518;2023-04-21T03:02:50;57923.84;;;-139.99;100.00
24154;BME280;12312;53.362;-1.518;2023-04-21T03:05:35;57923.84;;;-139.99;100.00
24154;BME280;12312;53.362;-1.518;2023-04-21T03:08:19;57923.84;;;-139.99;100.00
24154;BME280;12312;53.362;-1.518;2023-04-21T03:11:03;57923.84;;;-139.99;100.00
24154;BME280;12312;53.362;-1.518;2023-04-21T03:13:47;57923.84;;;-139.99;100.00
24154;BME280;12312;53.362;-1.518;2023-04-21T03:16:31;57923.84;;;-139.99;100.00
24154;BME280;12312;53.362;-1.518;2023-04-21T03:19:15;57923.84;;;-139.99;100.00
24154;BME280;12312;53.362;-1.518;2023-04-21T03:21:59;57923.84;;;-139.99;100.00
24154;BME280;12312;53.362;-1.518;2023-04-21T03:24:43;57923.84;;;-139.99;100.00
24154;BME280;12312;53.362;-1.518;2023-04-21T03:27:27;57923.84;;;-139.99;100.00
24154;BME280;12312;53.362;-1.518;2023-04-21T03:30:11;57923.84;;;-139.99;100.00
24154;BME280;12312;53.362;-1.518;2023-04-21T03:32:55;57923.84;;;-139.99;100.00
24154;BME280;12312;53.362;-1.518;2023-04-21T03:35:39;57923.84;;;-139.99;100.00
24154;BME280;12312;53.362;-1.518;2023-04-21T03:38:23;57923.84;;;-139.99;100.00
24154;BME280;12312;53.362;-1.518;2023-04-21T03:41:07;57923.84;;;-139.99;100.00
24154;BME280;12312;53.362;-1.518;2023-04-21T03:43:51;57923.84;;;-139.99;100.00
24154;BME280;12312;53.362;-1.518;2023-04-21T03:46:35;57923.84;;;-139.99;100.00
24154;BME280;12312;53.362;-1.518;2023-04-21T03:49:19;57923.84;;;-139.99;100.00
24154;BME280;12312;53.362;-1.518;2023-04-21T03:52:04;57923.84;;;-139.99;100.00
24154;BME280;12312;53.362;-1.518;2023-04-21T03:54:48;57923.84;;;-139.99;100.00
24154;BME280;12312;53.362;-1.518;2023-04-21T03:57:32;57923.84;;;-139.99;100.00
24154;BME280;12312;53.362;-1.518;2023-04-21T04:00:16;57923.84;;;-139.99;100.00
24154;BME280;12312;53.362;-1.518;2023-04-21T04:03:01;57923.84;;;-139.99;100.00
24154;BME280;12312;53.362;-1.518;2023-04-21T04:05:45;57923.84;;;-139.99;100.00
24154;BME280;12312;53.362;-1.518;2023-04-21T04:08:29;57923.84;;;-139.99;100.00
24154;BME280;12312;53.362;-1.518;2023-04-21T04:11:13;57923.84;;;-139.99;100.00
24154;BME280;12312;53.362;-1.518;2023-04-21T04:13:58;57923.84;;;-139.99;100.00
24154;BME280;12312;53.362;-1.518;2023-04-21T04:16:41;57923.84;;;-139.99;100.00
24154;BME280;12312;53.362;-1.518;2023-04-21T04:19:32;57923.84;;;-139.99;100.00
24154;BME280;12312;53.362;-1.518;2023-04-21T04:22:16;57923.84;;;-139.99;100.00
24154;BME280;12312;53.362;-1.518;2023-04-21T04:25:00;57923.84;;;-139.99;100.00
24154;BME280;12312;53.362;-1.518;2023-04-21T04:27:44;57923.84;;;-139.99;100.00
24154;BME280;12312;53.362;-1.518;2023-04-21T04:30:28;57923.84;;;-139.99;100.00
24154;BME280;12312;53.362;-1.518;2023-04-21T04:33:13;57923.84;;;-139.99;100.00
24154;BME280;12312;53.362;-1.518;2023-04-21T04:35:57;57923.84;;;-139.99;100.00
24154;BME280;12312;53.362;-1.518;2023-04-21T04:38:41;57923.84;;;-139.99;100.00
24154;BME280;12312;53.362;-1.518;2023-04-21T04:41:25;57923.84;;;-139.99;100.00
24154;BME280;12312;53.362;-1.518;2023-04-21T04:44:09;57923.84;;;-139.99;100.00
24154;BME280;12312;53.362;-1.518;2023-04-21T04:46:54;57923.84;;;-139.99;100.00
24154;BME280;12312;53.362;-1.518;2023-04-21T04:49:39;57923.84;;;-139.99;100.00
24154;BME280;12312;53.362;-1.518;2023-04-21T04:52:22;57923.84;;;-139.99;100.00
24154;BME280;12312;53.362;-1.518;2023-04-21T04:55:07;57923.84;;;-139.99;100.00
24154;BME280;12312;53.362;-1.518;2023-04-21T04:57:51;57923.84;;;-139.99;100.00
24154;BME280;12312;53.362;-1.518;2023-04-21T05:00:35;57923.84;;;-139.99;100.00
24154;BME280;12312;53.362;-1.518;2023-04-21T05:03:19;57923.84;;;-139.99;100.00
24154;BME280;12312;53.362;-1.518;2023-04-21T05:06:04;57923.84;;;-139.99;100.00
24154;BME280;12312;53.362;-1.518;2023-04-21T05:08:48;57923.84;;;-139.99;100.00
24154;BME280;12312;53.362;-1.518;2023-04-21T05:11:32;57923.84;;;-139.99;100.00
24154;BME280;12312;53.362;-1.518;2023-04-21T05:14:16;57923.84;;;-139.99;100.00
24154;BME280;12312;53.362;-1.518;2023-04-21T05:17:00;57923.84;;;-139.99;100.00
24154;BME280;12312;53.362;-1.518;2023-04-21T05:19:44;57923.84;;;-139.99;100.00
24154;BME280;12312;53.362;-1.518;2023-04-21T05:22:28;57923.84;;;-139.99;100.00
24154;BME280;12312;53.362;-1.518;2023-04-21T05:25:12;57923.84;;;-139.99;100.00
24154;BME280;12312;53.362;-1.518;2023-04-21T05:28:00;99226.84;;;7.68;100.00
24154;BME280;12312;53.362;-1.518;2023-04-21T05:30:44;99240.31;;;7.79;100.00
24154;BME280;12312;53.362;-1.518;2023-04-21T05:33:28;99235.00;;;7.93;100.00
24154;BME280;12312;53.362;-1.518;2023-04-21T05:36:14;99235.38;;;7.73;100.00
24154;BME280;12312;53.362;-1.518;2023-04-21T05:38:59;99237.63;;;7.93;100.00
24154;BME280;12312;53.362;-1.518;2023-04-21T05:41:43;99221.75;;;7.93;100.00
24154;BME280;12312;53.362;-1.518;2023-04-21T05:44:27;99225.16;;;7.95;100.00
24154;BME280;12312;53.362;-1.518;2023-04-21T05:47:11;99232.91;;;7.84;100.00
24154;BME280;12312;53.362;-1.518;2023-04-21T05:49:55;99231.41;;;7.80;100.00
24154;BME280;12312;53.362;-1.518;2023-04-21T05:52:39;99231.50;;;7.93;100.00
24154;BME280;12312;53.362;-1.518;2023-04-21T05:55:23;99231.03;;;7.86;100.00
24154;BME280;12312;53.362;-1.518;2023-04-21T05:58:07;99228.47;;;7.85;100.00
24154;BME280;12312;53.362;-1.518;2023-04-21T06:00:51;99219.66;;;7.98;100.00
24154;BME280;12312;53.362;-1.518;2023-04-21T06:03:35;99224.47;;;7.92;100.00
24154;BME280;12312;53.362;-1.518;2023-04-21T06:06:19;99217.00;;;7.84;100.00
24154;BME280;12312;53.362;-1.518;2023-04-21T06:09:03;99213.25;;;7.88;100.00
24154;BME280;12312;53.362;-1.518;2023-04-21T06:11:48;99216.25;;;7.96;100.00
24154;BME280;12312;53.362;-1.518;2023-04-21T06:14:33;99214.38;;;7.98;100.00
24154;BME280;12312;53.362;-1.518;2023-04-21T06:17:17;99192.97;;;8.01;100.00
24154;BME280;12312;53.362;-1.518;2023-04-21T06:20:01;99199.22;;;8.00;100.00
24154;BME280;12312;53.362;-1.518;2023-04-21T06:22:46;99185.41;;;7.95;100.00
24154;BME280;12312;53.362;-1.518;2023-04-21T06:25:30;99189.75;;;7.96;100.00
24154;BME280;12312;53.362;-1.518;2023-04-21T06:28:14;99177.06;;;8.01;100.00
24154;BME280;12312;53.362;-1.518;2023-04-21T06:30:59;99181.91;;;7.95;100.00
24154;BME280;12312;53.362;-1.518;2023-04-21T06:33:44;99160.50;;;7.98;100.00
24154;BME280;12312;53.362;-1.518;2023-04-21T06:36:27;99160.69;;;7.95;100.00
24154;BME280;12312;53.362;-1.518;2023-04-21T06:39:12;99158.44;;;8.03;100.00
24154;BME280;12312;53.362;-1.518;2023-04-21T06:41:56;99161.19;;;8.01;100.00
24154;BME280;12312;53.362;-1.518;2023-04-21T06:44:41;99149.47;;;7.91;100.00
24154;BME280;12312;53.362;-1.518;2023-04-21T06:47:25;99146.44;;;7.97;100.00
24154;BME280;12312;53.362;-1.518;2023-04-21T06:50:09;99135.25;;;8.06;100.00
24154;BME280;12312;53.362;-1.518;2023-04-21T06:52:53;99137.25;;;7.89;100.00
24154;BME280;12312;53.362;-1.518;2023-04-21T06:55:37;99136.75;;;7.96;100.00
24154;BME280;12312;53.362;-1.518;2023-04-21T06:58:21;99134.28;;;8.07;100.00
24154;BME280;12312;53.362;-1.518;2023-04-21T07:01:05;99135.75;;;7.99;100.00
24154;BME280;12312;53.362;-1.518;2023-04-21T07:03:49;99130.69;;;8.08;100.00
24154;BME280;12312;53.362;-1.518;2023-04-21T07:06:34;99125.19;;;8.11;100.00
24154;BME280;12312;53.362;-1.518;2023-04-21T07:09:18;99132.13;;;8.00;100.00
24154;BME280;12312;53.362;-1.518;2023-04-21T07:12:02;99121.91;;;8.08;100.00
24154;BME280;12312;53.362;-1.518;2023-04-21T07:14:46;99124.97;;;8.14;100.00
24154;BME280;12312;53.362;-1.518;2023-04-21T07:17:30;99130.47;;;8.11;100.00
24154;BME280;12312;53.362;-1.518;2023-04-21T07:20:14;99124.53;;;8.08;100.00
24154;BME280;12312;53.362;-1.518;2023-04-21T07:22:58;99131.63;;;8.07;100.00
24154;BME280;12312;53.362;-1.518;2023-04-21T07:25:42;99107.59;;;8.10;100.00
24154;BME280;12312;53.362;-1.518;2023-04-21T07:28:26;99108.16;;;8.15;100.00
24154;BME280;12312;53.362;-1.518;2023-04-21T07:31:10;99117.44;;;8.22;100.00
24154;BME280;12312;53.362;-1.518;2023-04-21T07:33:54;99095.72;;;8.16;100.00
24154;BME280;12312;53.362;-1.518;2023-04-21T07:36:38;99108.56;;;8.09;100.00
24154;BME280;12312;53.362;-1.518;2023-04-21T07:39:23;99094.03;;;8.15;100.00
24154;BME280;12312;53.362;-1.518;2023-04-21T07:42:07;99095.38;;;8.22;100.00
24154;BME280;12312;53.362;-1.518;2023-04-21T07:44:52;99073.78;;;8.28;100.00
24154;BME280;12312;53.362;-1.518;2023-04-21T07:47:37;99071.47;;;8.36;100.00
24154;BME280;12312;53.362;-1.518;2023-04-21T07:50:21;99075.94;;;8.35;100.00
24154;BME280;12312;53.362;-1.518;2023-04-21T07:53:05;99078.88;;;8.31;100.00
24154;BME280;12312;53.362;-1.518;2023-04-21T07:55:49;99070.44;;;8.38;100.00
24154;BME280;12312;53.362;-1.518;2023-04-21T07:58:33;99100.03;;;8.45;100.00
24154;BME280;12312;53.362;-1.518;2023-04-21T08:01:17;99083.59;;;8.52;100.00
24154;BME280;12312;53.362;-1.518;2023-04-21T08:04:01;99071.72;;;8.45;100.00
24154;BME280;12312;53.362;-1.518;2023-04-21T08:06:45;99073.59;;;8.43;100.00
24154;BME280;12312;53.362;-1.518;2023-04-21T08:09:29;99091.91;;;8.60;100.00
24154;BME280;12312;53.362;-1.518;2023-04-21T08:12:13;99067.28;;;8.46;100.00
24154;BME280;12312;53.362;-1.518;2023-04-21T08:14:57;99070.13;;;8.43;100.00
24154;BME280;12312;53.362;-1.518;2023-04-21T08:17:41;99086.06;;;8.55;100.00
24154;BME280;12312;53.362;-1.518;2023-04-21T08:20:25;99063.28;;;8.65;100.00
24154;BME280;12312;53.362;-1.518;2023-04-21T08:23:09;99076.84;;;8.61;100.00
24154;BME280;12312;53.362;-1.518;2023-04-21T08:25:53;99068.81;;;8.62;100.00
24154;BME280;12312;53.362;-1.518;2023-04-21T08:28:37;99063.91;;;8.69;100.00
24154;BME280;12312;53.362;-1.518;2023-04-21T08:31:22;99081.53;;;8.70;100.00
24154;BME280;12312;53.362;-1.518;2023-04-21T08:34:06;99071.19;;;8.79;100.00
24154;BME280;12312;53.362;-1.518;2023-04-21T08:36:49;99064.66;;;8.71;100.00
24154;BME280;12312;53.362;-1.518;2023-04-21T08:39:34;99055.25;;;8.79;100.00
24154;BME280;12312;53.362;-1.518;2023-04-21T08:42:18;99074.47;;;8.95;100.00
24154;BME280;12312;53.362;-1.518;2023-04-21T08:45:03;99065.34;;;8.99;100.00
24154;BME280;12312;53.362;-1.518;2023-04-21T08:47:48;99068.88;;;9.13;100.00
24154;BME280;12312;53.362;-1.518;2023-04-21T08:50:33;99065.47;;;9.11;100.00
24154;BME280;12312;53.362;-1.518;2023-04-21T08:53:18;99063.34;;;9.28;100.00
24154;BME280;12312;53.362;-1.518;2023-04-21T08:56:03;99055.91;;;9.08;100.00
24154;BME280;12312;53.362;-1.518;2023-04-21T08:58:48;99058.47;;;9.10;100.00
24154;BME280;12312;53.362;-1.518;2023-04-21T09:01:32;99065.78;;;9.06;100.00
24154;BME280;12312;53.362;-1.518;2023-04-21T09:04:16;99065.56;;;9.22;100.00
24154;BME280;12312;53.362;-1.518;2023-04-21T09:07:00;99073.22;;;9.14;100.00
24154;BME280;12312;53.362;-1.518;2023-04-21T09:09:54;99069.50;;;9.41;100.00
24154;BME280;12312;53.362;-1.518;2023-04-21T09:12:39;99061.94;;;9.23;100.00
24154;BME280;12312;53.362;-1.518;2023-04-21T09:15:23;99055.28;;;9.30;100.00
24154;BME280;12312;53.362;-1.518;2023-04-21T09:18:16;99052.91;;;9.50;100.00
24154;BME280;12312;53.362;-1.518;2023-04-21T09:21:08;99057.28;;;9.39;100.00
24154;BME280;12312;53.362;-1.518;2023-04-21T09:23:53;99044.22;;;9.36;100.00
24154;BME280;12312;53.362;-1.518;2023-04-21T09:26:41;99049.59;;;9.47;100.00
24154;BME280;12312;53.362;-1.518;2023-04-21T09:29:25;99051.75;;;9.42;100.00
24154;BME280;12312;53.362;-1.518;2023-04-21T09:32:10;99048.88;;;9.45;100.00
24154;BME280;12312;53.362;-1.518;2023-04-21T09:34:59;99039.94;;;9.46;100.00
24154;BME280;12312;53.362;-1.518;2023-04-21T09:37:43;99039.75;;;9.24;100.00
24154;BME280;12312;53.362;-1.518;2023-04-21T09:40:31;99034.97;;;9.41;100.00
24154;BME280;12312;53.362;-1.518;2023-04-21T09:43:15;99041.78;;;9.33;100.00
24154;BME280;12312;53.362;-1.518;2023-04-21T09:46:01;99047.81;;;9.35;100.00
24154;BME280;12312;53.362;-1.518;2023-04-21T09:48:46;99053.13;;;9.35;100.00
24154;BME280;12312;53.362;-1.518;2023-04-21T09:51:31;99048.88;;;9.32;100.00
24154;BME280;12312;53.362;-1.518;2023-04-21T09:54:20;99056.97;;;9.31;100.00
24154;BME280;12312;53.362;-1.518;2023-04-21T09:57:05;99053.97;;;9.23;100.00
24154;BME280;12312;53.362;-1.518;2023-04-21T10:00:01;99058.25;;;9.13;100.00
24154;BME280;12312;53.362;-1.518;2023-04-21T10:02:49;99057.19;;;9.28;100.00
24154;BME280;12312;53.362;-1.518;2023-04-21T10:05:33;99062.69;;;9.25;100.00
24154;BME280;12312;53.362;-1.518;2023-04-21T10:08:18;99059.94;;;9.39;100.00
24154;BME280;12312;53.362;-1.518;2023-04-21T10:11:03;99066.28;;;9.24;100.00
24154;BME280;12312;53.362;-1.518;2023-04-21T10:13:47;99061.41;;;9.18;100.00
24154;BME280;12312;53.362;-1.518;2023-04-21T10:16:34;99059.28;;;9.23;100.00
24154;BME280;12312;53.362;-1.518;2023-04-21T10:19:24;99067.38;;;9.21;100.00
24154;BME280;12312;53.362;-1.518;2023-04-21T10:22:09;99068.53;;;9.04;100.00
24154;BME280;12312;53.362;-1.518;2023-04-21T10:24:55;99064.69;;;9.08;100.00
24154;BME280;12312;53.362;-1.518;2023-04-21T10:27:43;99066.09;;;9.01;100.00
24154;BME280;12312;53.362;-1.518;2023-04-21T10:30:27;99065.25;;;9.14;100.00
24154;BME280;12312;53.362;-1.518;2023-04-21T10:33:11;99069.06;;;9.10;100.00
24154;BME280;12312;53.362;-1.518;2023-04-21T10:36:00;99061.94;;;9.23;100.00
24154;BME280;12312;53.362;-1.518;2023-04-21T10:38:54;99057.81;;;9.19;100.00
24154;BME280;12312;53.362;-1.518;2023-04-21T10:41:42;99057.41;;;9.25;100.00
24154;BME280;12312;53.362;-1.518;2023-04-21T10:44:27;99059.72;;;9.17;100.00
24154;BME280;12312;53.362;-1.518;2023-04-21T10:47:12;99056.09;;;9.18;100.00
24154;BME280;12312;53.362;-1.518;2023-04-21T10:49:57;99044.88;;;9.27;100.00
24154;BME280;12312;53.362;-1.518;2023-04-21T10:52:46;99044.00;;;9.14;100.00
24154;BME280;12312;53.362;-1.518;2023-04-21T10:55:34;99043.78;;;9.17;100.00
24154;BME280;12312;53.362;-1.518;2023-04-21T10:58:19;99045.91;;;9.24;100.00
24154;BME280;12312;53.362;-1.518;2023-04-21T11:01:07;99053.78;;;9.26;100.00
24154;BME280;12312;53.362;-1.518;2023-04-21T11:03:51;99060.16;;;9.11;100.00
24154;BME280;12312;53.362;-1.518;2023-04-21T11:06:35;99049.75;;;9.07;100.00
24154;BME280;12312;53.362;-1.518;2023-04-21T11:09:19;99038.28;;;9.20;100.00
24154;BME280;12312;53.362;-1.518;2023-04-21T11:12:09;99039.56;;;9.27;100.00
24154;BME280;12312;53.362;-1.518;2023-04-21T11:14:53;99039.97;;;9.08;100.00
24154;BME280;12312;53.362;-1.518;2023-04-21T11:17:37;99038.47;;;9.17;100.00
24154;BME280;12312;53.362;-1.518;2023-04-21T11:20:26;99044.00;;;9.26;100.00
24154;BME280;12312;53.362;-1.518;2023-04-21T11:23:16;99044.88;;;9.27;100.00
24154;BME280;12312;53.362;-1.518;2023-04-21T11:26:00;99033.06;;;9.31;100.00
24154;BME280;12312;53.362;-1.518;2023-04-21T11:28:48;99023.41;;;9.30;100.00
24154;BME280;12312;53.362;-1.518;2023-04-21T11:31:37;99023.81;;;9.24;100.00
24154;BME280;12312;53.362;-1.518;2023-04-21T11:34:21;99033.81;;;9.33;100.00
24154;BME280;12312;53.362;-1.518;2023-04-21T11:37:08;99035.59;;;9.45;100.00
24154;BME280;12312;53.362;-1.518;2023-04-21T11:39:57;99030.94;;;9.36;100.00
24154;BME280;12312;53.362;-1.518;2023-04-21T11:42:42;99024.03;;;9.21;100.00
24154;BME280;12312;53.362;-1.518;2023-04-21T11:45:27;99014.28;;;9.08;100.00
24154;BME280;12312;53.362;-1.518;2023-04-21T11:48:15;99025.75;;;9.22;100.00
24154;BME280;12312;53.362;-1.518;2023-04-21T11:51:00;99018.72;;;9.21;100.00
24154;BME280;12312;53.362;-1.518;2023-04-21T11:53:47;99024.44;;;9.40;100.00
24154;BME280;12312;53.362;-1.518;2023-04-21T11:56:36;99018.59;;;9.35;100.00
24154;BME280;12312;53.362;-1.518;2023-04-21T11:59:23;99023.63;;;9.27;100.00
24154;BME280;12312;53.362;-1.518;2023-04-21T12:02:12;99013.59;;;9.43;100.00
24154;BME280;12312;53.362;-1.518;2023-04-21T12:05:02;99013.97;;;9.62;100.00
24154;BME280;12312;53.362;-1.518;2023-04-21T12:07:46;99017.56;;;9.25;100.00
24154;BME280;12312;53.362;-1.518;2023-04-21T12:10:31;99014.34;;;9.45;100.00
24154;BME280;12312;53.362;-1.518;2023-04-21T12:13:22;99024.16;;;9.68;100.00
24154;BME280;12312;53.362;-1.518;2023-04-21T12:16:06;99012.97;;;9.39;100.00
24154;BME280;12312;53.362;-1.518;2023-04-21T12:18:50;99018.25;;;9.52;100.00
24154;BME280;12312;53.362;-1.518;2023-04-21T12:21:37;99022.16;;;9.59;100.00
24154;BME280;12312;53.362;-1.518;2023-04-21T12:24:22;99004.56;;;9.45;100.00
24154;BME280;12312;53.362;-1.518;2023-04-21T12:27:06;99012.63;;;9.44;100.00
24154;BME280;12312;53.362;-1.518;2023-04-21T12:29:50;99019.13;;;9.40;100.00
24154;BME280;12312;53.362;-1.518;2023-04-21T12:32:34;99015.28;;;9.44;100.00
24154;BME280;12312;53.362;-1.518;2023-04-21T12:35:19;99008.50;;;9.40;100.00
24154;BME280;12312;53.362;-1.518;2023-04-21T12:38:03;99016.78;;;9.48;100.00
24154;BME280;12312;53.362;-1.518;2023-04-21T12:40:48;99027.31;;;9.49;100.00
24154;BME280;12312;53.362;-1.518;2023-04-21T12:43:31;99021.66;;;9.54;100.00
24154;BME280;12312;53.362;-1.518;2023-04-21T12:46:15;99019.56;;;9.34;100.00
24154;BME280;12312;53.362;-1.518;2023-04-21T12:48:59;99023.44;;;9.66;100.00
24154;BME280;12312;53.362;-1.518;2023-04-21T12:51:44;99018.69;;;9.58;100.00
24154;BME280;12312;53.362;-1.518;2023-04-21T12:54:28;99020.25;;;9.61;100.00
24154;BME280;12312;53.362;-1.518;2023-04-21T12:57:13;99017.16;;;9.67;100.00
24154;BME280;12312;53.362;-1.518;2023-04-21T12:59:59;99024.97;;;9.93;100.00
24154;BME280;12312;53.362;-1.518;2023-04-21T13:02:43;99023.66;;;9.63;100.00
24154;BME280;12312;53.362;-1.518;2023-04-21T13:05:27;99016.03;;;9.58;100.00
24154;BME280;12312;53.362;-1.518;2023-04-21T13:08:11;99026.25;;;9.75;100.00
24154;BME280;12312;53.362;-1.518;2023-04-21T13:10:55;99022.41;;;9.92;100.00
24154;BME280;12312;53.362;-1.518;2023-04-21T13:13:39;99025.75;;;10.06;100.00
24154;BME280;12312;53.362;-1.518;2023-04-21T13:16:23;99017.09;;;9.92;100.00
24154;BME280;12312;53.362;-1.518;2023-04-21T13:19:07;99013.66;;;10.02;100.00
24154;BME280;12312;53.362;-1.518;2023-04-21T13:21:51;99011.78;;;9.92;100.00
24154;BME280;12312;53.362;-1.518;2023-04-21T13:24:35;99009.25;;;10.14;100.00
24154;BME280;12312;53.362;-1.518;2023-04-21T13:27:19;99014.47;;;10.03;100.00
24154;BME280;12312;53.362;-1.518;2023-04-21T13:30:06;99008.22;;;10.27;100.00
24154;BME280;12312;53.362;-1.518;2023-04-21T13:32:50;99009.03;;;10.17;100.00
24154;BME280;12312;53.362;-1.518;2023-04-21T13:35:34;99010.72;;;10.18;100.00
24154;BME280;12312;53.362;-1.518;2023-04-21T13:38:19;99003.78;;;10.28;100.00
24154;BME280;12312;53.362;-1.518;2023-04-21T13:41:03;99005.16;;;10.21;100.00
24154;BME280;12312;53.362;-1.518;2023-04-21T13:43:48;98995.50;;;10.43;100.00
24154;BME280;12312;53.362;-1.518;2023-04-21T13:46:32;98998.91;;;10.56;100.00
24154;BME280;12312;53.362;-1.518;2023-04-21T13:49:16;98981.84;;;10.48;100.00
24154;BME280;12312;53.362;-1.518;2023-04-21T13:52:00;98984.81;;;10.32;100.00
24154;BME280;12312;53.362;-1.518;2023-04-21T13:54:44;98980.13;;;10.36;100.00
24154;BME280;12312;53.362;-1.518;2023-04-21T13:57:28;98971.69;;;10.53;100.00
24154;BME280;12312;53.362;-1.518;2023-04-21T14:00:12;98977.44;;;10.70;100.00
24154;BME280;12312;53.362;-1.518;2023-04-21T14:02:57;98972.69;;;10.63;100.00
24154;BME280;12312;53.362;-1.518;2023-04-21T14:05:41;98958.88;;;10.58;100.00
24154;BME280;12312;53.362;-1.518;2023-04-21T14:08:25;98953.09;;;10.64;100.00